KNMI Weerbulletins

Hier vind u de KMNI verwachtingen en de waarnemingen

Bron: KNMI website
Laatste update op 26-05-2020 om 21:39
ZCZC
FBNL50 EHDB 261430
WEERBULLETIN VOOR DE LUCHTVAART
.
GELDIG 261500/262100 UTC
.
SITUATIE: ONDER INVLOED VAN EEN HOGEDRUKGEBIED BOVEN DE BRITSE
EILANDEN STAAT ER EEN ZWAKKE NOORDELIJKE STROMING. DE OPBOUW IS
ONSTABIEL TOT 5000-6000 VT, NA 18:15 UTC VORMT ZICH EEN
GRONDINVERSIE.
.
SIGNIFICANT WEER: GEEN.
.
WIND: IN HET WESTEN, MIDDEN EN ZUIDEN IN DE EERSTE HELFT VAN DE
PERIODE NOORDWESTELIJK 5-10 KN, IN DE KUSTGEBIEDEN MOGELIJK ENKELE KN
MEER. ELDERS MEEST NOORDELIJK 2-7 KN. IN DE TWEEDE HELFT VAN DE
PERIODE OVERAL RUIMEND NAAR NOORD EN AFNEMEND NAAR 2-5 KN, IN HET
WESTELIJK KUSTGEBIED 5-10 KN.
.
BEWOLKING: IN DE EERSTE HELFT VAN DE PERIODE LOKAAL FEW, MOGELIJK SCT
CU 4000-5000 VT, TOPPEN 5000-6000 VT.
.
ZICHT: MEER DAN 10 KM.
.
NULGRADEN NIVEAU: ROND FL100.
.
HOOGTEWINDEN EN TEMPERATUREN:
       15 UTC:           21 UTC:
0500VT 270-360/05-10 +19 020/15 +18
1500VT 270-360/05-10 +16 040/10 +15
3000VT 290-360/05-10 +11 050/10 +11
FL 050 310-360/05-15 +05 010/05 +06
FL 100 330-360/10-20 -01 010/20 -00
.
.
THERMIEK: MATIG, MEEST DROOG. UITDOVEND VANAF 18:15 UTC.
.
MAX. TEMPERATUUR: -
.
VOORUITZICHTEN VOOR MORGEN: AAN DE ZUIDOOSTFLANK VAN EEN
HOGEDRUKGEBIED BOVEN SCHOTLAND STAAT IN ONZE OMGEVING EEN NOORDELIJKE
STROMING. AANVANKELIJK VOORAL IN DE WESTELIJKE HELFT LOKAAL
NEVEL/GRONDMIST EN MOGELIJK EEN MISTBANK, SPOEDIG OPLOSSEND. IN DE
OCHTEND IN HET NOORDELIJK KUSTGEBIED, IN DE MIDDAG LANGS DE WESTKUST,
EEN KLEINE KANS OP STRATUS EN NEVEL VANAF ZEE.
.
DAGLICHTPERIODE: 03.16 TOT 19.59 UTC.=
NNNN
Bron: KNMI website
Laatste update op 26-05-2020 om 21:39
ZCZC
FC261700 EHGR     GILZE-RIJEN/GILZE-RIJEN   NLD   14 m.
TAF EHGR 261612Z 2617/2705 02006KT CAVOK
    BECMG 2623/2701 VRB03KT
    PROB30 2701/2705 4500 BR MIFG=
ZCZC
FC261700 EHKD     DE KOOY/DE KOOY   NLD   1 m.
TAF EHKD 261645Z 2617/2705 34005KT CAVOK
    PROB40 2700/2705 4000 BR MIFG=
ZCZC
FC261700 EHLW     LEEUWARDEN/LEEUWARDEN   NLD   1 m.
TAF EHLW 261607Z 2617/2705 34005KT CAVOK
    PROB40 2701/2705 4500 BR MIFG=
ZCZC
FC261700 EHVK     VOLKEL/VOLKEL   NLD   21 m.
TAF EHVK 261609Z 2617/2705 02005KT CAVOK
    BECMG 2622/2701 VRB03KT
    PROB30 2701/2705 4500 BR MIG=
ZCZC
FC261700 EHWO     WOENSDRECHT/WOENSDRECHT   NLD   19 m.
TAF EHWO 261700Z NIL=
ZCZC
FT261700 EHAM     AMSTERDAM/SCHIPHOL   NLD   -3 m.
TAF EHAM 261705Z 2618/2724 33007KT CAVOK
    PROB30 2701/2705 4000 BR MIFG
    BECMG 2709/2712 35012KT
    BECMG 2719/2722 04007KT=
ZCZC
FT261700 EHBK     MAASTRICHT/MAASTRICHT-AACHEN   NLD   114 m.
TAF EHBK 261657Z 2618/2724 03007KT CAVOK=
ZCZC
FT261700 EHGG     GRONINGEN/EELDE   NLD   5 m.
TAF EHGG 261657Z 2618/2724 03005KT CAVOK
    PROB30 2700/2705 6000 MIFG
    BECMG 2707/2710 36010KT
    BECMG 2719/2722 03005KT
    PROB30 2722/2724 6000 MIFG=
ZCZC
FT261700 EHLE     LELYSTAD/LELYSTAD   NLD   -3 m.
TAF EHLE 261705Z 2618/2724 34005KT CAVOK
    PROB30 2701/2705 4000 BR MIFG
    BECMG 2709/2712 34014KT
    BECMG 2719/2722 04007KT=
ZCZC
FT261700 EHRD     ROTTERDAM/THE HAGUE AIRPORT   NLD   -5 m.
TAF EHRD 261705Z 2618/2724 34005KT CAVOK
    PROB40 2700/2705 4000 BR MIFG
    BECMG 2708/2711 36012KT
    BECMG 2719/2722 04007KT=
ZCZC
FT261700 EHEH     EINDHOVEN/EINDHOVEN   NLD   22 m.
TAF EHEH 261723Z 2618/2724 01006KT CAVOK
    PROB30 2703/2706 4000 BR MIFG
    BECMG 2708/2710 SCT040=
Bron: KNMI website
Laatste update op 26-05-2020 om 21:39
ZCZC
SA261855 EHFS     VLISSINGEN AWS   NLD   8 m.
METAR EHFS 261855Z AUTO 35007KT 310V030 9999 NSC 19/08 Q1034=
ZCZC
SA261855 EHSG     BSA   NLD   43 m.
METAR EHSG 261855Z AUTO 02013KT //// // NSC 14/09 Q1035 RE//=
ZCZC
SA261925 EHKD     DE KOOY/DE KOOY   NLD   1 m.
METAR EHKD 261925Z AUTO 33005KT 300V010 9999 OVC073 15/12 Q1035
BLU 34007KT CAVOK=
ZCZC
SA261925 EHFD     F3-FB-1   NLD   50 m.
METAR EHFD 261925Z AUTO /////KT //// // SCT029/// OVC032/// 12/10
Q1035 RE//=
ZCZC
SA261925 EHAM     AMSTERDAM/SCHIPHOL   NLD   -3 m.
METAR EHAM 261925Z 33008KT 310V010 CAVOK 17/09 Q1034 NOSIG=
ZCZC
SA261925 EHVL     VLIELAND   NLD   10 m.
METAR EHVL 261925Z AUTO 35008KT 9999 FEW072 SCT085 13/12 Q1035 BLU=
ZCZC
SA261925 EHJR     K13-A   NLD   37 m.
METAR EHJR 261925Z AUTO 02009KT //// // ///////// 12/10 Q1036 RE//
W12/H5=
ZCZC
SA261925 EHLE     LELYSTAD/LELYSTAD   NLD   -3 m.
METAR EHLE 261925Z AUTO 35005KT 9999 NCD 18/10 Q1034 NOSIG=
ZCZC
SA261925 EHLW     LEEUWARDEN/LEEUWARDEN   NLD   1 m.
METAR EHLW 261925Z AUTO 34005KT 9999 FEW081 15/12 Q1034 BLU=
ZCZC
SA261925 EHDL     ARNHEM/DEELEN   NLD   48 m.
METAR EHDL 261925Z AUTO 06004KT 040V100 9999 NCD 18/10 Q1034 BLU=
ZCZC
SA261925 EHGG     GRONINGEN/EELDE   NLD   5 m.
METAR EHGG 261925Z AUTO 05005KT 040V130 9999 NCD 16/10 Q1034 NOSIG=
ZCZC
SA261925 EHSC     LICHTEILAND GOEREE   NLD   22 m.
METAR EHSC 261925Z AUTO 02010KT 9999 ///////// 14/11 Q1035 W13/H4=
ZCZC
SA261925 EHSA     EURO PLATFORM   NLD   19 m.
METAR EHSA 261925Z AUTO 36010KT 9999 ///////// 13/10 Q1035 W11/H4=
ZCZC
SA261925 EHWO     WOENSDRECHT/WOENSDRECHT   NLD   19 m.
METAR EHWO 261925Z AUTO 35004KT 290V030 9999 OVC089 18/07 Q1034 BLU=
ZCZC
SA261925 EHRD     ROTTERDAM/THE HAGUE AIRPORT   NLD   -5 m.
METAR EHRD 261925Z AUTO 35006KT 320V030 9999 NSC 17/07 Q1035 NOSIG=
ZCZC
SA261925 EHGR     GILZE-RIJEN/GILZE-RIJEN   NLD   14 m.
METAR EHGR 261925Z AUTO 34008KT 280V050 9999 SCT390 19/10 Q1034
BLU 01006KT CAVOK=
ZCZC
SA261925 EHEH     EINDHOVEN/EINDHOVEN   NLD   22 m.
METAR EHEH 261925Z AUTO 34004KT 9999 OVC180 20/10 Q1033 BLU=
ZCZC
SA261925 EHVK     VOLKEL/VOLKEL   NLD   21 m.
METAR EHVK 261925Z AUTO 06006KT 010V100 9999 FEW190 BKN390 18/08
Q1033 BLU=
ZCZC
SA261925 EHBK     MAASTRICHT/MAASTRICHT-AACHEN   NLD   114 m.
METAR EHBK 261925Z AUTO 07005KT 9999 NSC 18/05 Q1033 NOSIG=
ZCZC
SA261925 EHFZ     F16-A   NLD   43 m.
METAR EHFZ 261925Z AUTO 32010KT 9999 NSC 13/11 Q1035=
ZCZC
SA261925 EHKV     K14-FA-1C   NLD   41 m.
METAR EHKV 261925Z AUTO 34010KT 9999 NCD 13/11 Q////=
ZCZC
SA261925 EHMG     L9-FF-1   NLD   44 m.
METAR EHMG 261925Z AUTO 34008KT 9999 NSC 13/12 Q1035=
ZCZC
SA261925 EHMA     AWG-1   NLD   40 m.
METAR EHMA 261925Z AUTO VRB05KT 9999 NCD 15/12 Q1034=
ZCZC
SA261925 EHDV     D15-FA-1   NLD   42 m.
METAR EHDV 261925Z AUTO 02008KT //// // ///////// 13/11 Q1035 RE//=
ZCZC
SA261925 EHAK     A12-CPP   NLD   48 m.
METAR EHAK 261925Z AUTO 32007KT 9999 NSC 12/11 Q1035=
ZCZC
SA261925 EHQE     HOORN-A   NLD   50 m.
METAR EHQE 261925Z AUTO 32010KT 9999 NSC 13/11 Q1035=
ZCZC
SA261925 EHJA     J6-A   NLD   45 m.
METAR EHJA 261925Z AUTO 35006KT 9999 NSC 12/11 Q1035=
ZCZC
SA261925 EHPG     P11-B   NLD   41 m.
METAR EHPG 261925Z AUTO 34010KT 9999 NSC 13/10 Q1035=
ZCZC
SA261925 EHHW     BUITENGAATS/BG-OHVS2      42 m.
METAR EHHW 261925Z AUTO 16003KT 130V210 9999 NSC 13/10 Q1034=